Rome, GA (30164)

10:50 AM EDT on July 29, 2014 (GMT -0400)
Fair Oaks/West Rome (KGAROME7) Elev 794 ft | 34.26 °N, 85.25 °W | Change Station

Current weather conditions updated 1 second ago

Clear
Clear
77.7 °F
Feels Like 79 °F
N
4.5
Wind Variable Wind from NW
Gusts 8.3 mph

Today is forecast to be Much Cooler than yesterday.

Today
High -- | Low -- °F
--% Chance of Precip.
Yesterday
High -- | Low -- °F
Precip. -- in
6:49 AM 8:44 PM
Waxing Crescent, 6% visible
Pressure 30.03 in
Visibility 10.0 miles
Clouds Clear
Heat Index 79 °F
Dew Point 62 °F
Humidity 59%
Rainfall 0.00 in
Snow Depth Not available.
UV 4 out of 12
Pollen 4.90 out of 12
Air Quality Not available.
Flu Activity Not available.
METAR KRMG 291353Z AUTO 33008KT 10SM CLR 23/17 A3003

More Conditions Fewer Conditions

Pressure 30.03 in
Visibility 10.0 miles
Clouds Clear
Heat Index 79 °F
Dew Point 62 °F
Humidity 59%
Rainfall 0.00 in
Snow Depth Not available.
UV 4 out of 12
Pollen 4.90 out of 12
Air Quality Not available.
Flu Activity Not available.
METAR KRMG 291353Z AUTO 33008KT 10SM CLR 23/17 A3003

More Conditions Fewer Conditions

10-Day Weather Forecast

Almanac

Astronomy

Jul. 29, 2014 Rise Set
Actual Time 6:49 AM EDT 8:44 PM EDT
Civil Twilight 6:21 AM EDT 9:12 PM EDT
Nautical Twilight 5:48 AM EDT 9:45 PM EDT
Astronomical Twilight 5:12 AM EDT 10:21 PM EDT
Moon 9:16 AM EDT 10:06 PM EDT
Length of Visible Light 14h 50m
Length of Day
13h 55m
Tomorrow will be 1m 32s shorter.
Waxing Crescent, 6% of the Moon is Illuminated
Today
Waxing Crescent
Aug 3
First Quarter
Aug 10
Full
Aug 17
Last Quarter
Aug 25
New

Today's Extremes

State Highs State Lows

Community

WunderPhotos

Upload Photos

1,738,749 photos uploaded!

Nearby

Snow Depth

Station Depth Elevation
No new snow has been reported.

Earthquake Activity

City Distance Mag. Time & Date
No recent earthquake activity has been reported nearby.
Minimum magnitude displayed is 2.5.

Coastal Water Temperatures

Place Temperature
No Stations Reporting

Nearby Weather Stations

Station Location Temp. Heat Index Dew Point Humidity Wind Precip. Elev Updated Type
Fair Oaks/West Rome, Rome, GA 77.7 °F 79 °F 62 °F 59% NW  at  4.5 mph 0.00 in / hr 794 ft 10:50 AM EDT Rapid Fire
Highlands of Rome, Rome, GA 77.5 °F 79 °F 64 °F 64% WSW  at  1.0 mph 0.00 in / hr 665 ft 10:49 AM EDT Normal
Rome, Rome, GA 78.2 °F 80 °F 64 °F 63% NE  at  2.0 mph - / hr 696 ft 10:50 AM EDT Normal
Lindale, Lindale, GA 73.7 °F 75 °F 64 °F 72% NNE  at  0.0 mph 0.00 in / hr 780 ft 10:50 AM EDT Rapid Fire
Richardson Rd., Calhoun, GA 74.1 °F 76 °F 63 °F 68% WNW  at  4.0 mph 0.00 in / hr 689 ft 10:50 AM EDT Rapid Fire
The Villages of Calhoun, Calhoun, GA 78.8 °F 81 °F 65 °F 63% NNW  at  2.0 mph 0.00 in / hr 676 ft 10:44 AM EDT Normal
The Ridges, Cedar Bluff, AL 75.4 °F 78 °F 49 °F 39% NW  at  7.4 mph 0.00 in / hr 639 ft 9:50 AM CDT Normal

Show More Stations Show Fewer Stations